sensor_id;sensor_type;location;lat;lon;timestamp;P1;durP1;ratioP1;P2;durP2;ratioP2
53263;SDS011;39153;52.680;6.172;2023-04-25T00:02:15;21.23;;;4.72;;
53263;SDS011;39153;52.680;6.172;2023-04-25T00:04:41;23.77;;;3.83;;
53263;SDS011;39153;52.680;6.172;2023-04-25T00:07:07;16.70;;;3.53;;
53263;SDS011;39153;52.680;6.172;2023-04-25T00:09:32;14.30;;;3.88;;
53263;SDS011;39153;52.680;6.172;2023-04-25T00:11:58;16.27;;;3.90;;
53263;SDS011;39153;52.680;6.172;2023-04-25T00:14:24;18.83;;;3.63;;
53263;SDS011;39153;52.680;6.172;2023-04-25T00:16:50;16.90;;;3.85;;
53263;SDS011;39153;52.680;6.172;2023-04-25T00:19:17;19.90;;;4.68;;
53263;SDS011;39153;52.680;6.172;2023-04-25T00:21:43;18.20;;;4.03;;
53263;SDS011;39153;52.680;6.172;2023-04-25T00:24:11;21.90;;;4.32;;
53263;SDS011;39153;52.680;6.172;2023-04-25T00:26:37;23.10;;;4.53;;
53263;SDS011;39153;52.680;6.172;2023-04-25T00:29:03;22.58;;;4.00;;
53263;SDS011;39153;52.680;6.172;2023-04-25T00:31:29;17.25;;;4.53;;
53263;SDS011;39153;52.680;6.172;2023-04-25T00:33:55;18.88;;;3.95;;
53263;SDS011;39153;52.680;6.172;2023-04-25T00:36:21;20.17;;;3.92;;
53263;SDS011;39153;52.680;6.172;2023-04-25T00:38:47;14.70;;;3.90;;
53263;SDS011;39153;52.680;6.172;2023-04-25T00:41:13;18.48;;;3.97;;
53263;SDS011;39153;52.680;6.172;2023-04-25T00:43:38;16.90;;;3.95;;
53263;SDS011;39153;52.680;6.172;2023-04-25T00:46:05;19.67;;;4.00;;
53263;SDS011;39153;52.680;6.172;2023-04-25T00:48:31;21.55;;;3.95;;
53263;SDS011;39153;52.680;6.172;2023-04-25T00:50:57;20.90;;;3.80;;
53263;SDS011;39153;52.680;6.172;2023-04-25T00:53:24;16.45;;;3.83;;
53263;SDS011;39153;52.680;6.172;2023-04-25T00:55:51;17.00;;;4.47;;
53263;SDS011;39153;52.680;6.172;2023-04-25T00:58:18;17.40;;;3.50;;
53263;SDS011;39153;52.680;6.172;2023-04-25T01:00:45;21.00;;;3.75;;
53263;SDS011;39153;52.680;6.172;2023-04-25T01:03:15;16.63;;;3.15;;
53263;SDS011;39153;52.680;6.172;2023-04-25T01:05:42;13.23;;;3.05;;
53263;SDS011;39153;52.680;6.172;2023-04-25T01:08:08;20.05;;;3.85;;
53263;SDS011;39153;52.680;6.172;2023-04-25T01:10:35;20.00;;;3.95;;
53263;SDS011;39153;52.680;6.172;2023-04-25T01:13:01;18.10;;;3.55;;
53263;SDS011;39153;52.680;6.172;2023-04-25T01:15:28;14.32;;;4.13;;
53263;SDS011;39153;52.680;6.172;2023-04-25T01:17:53;19.58;;;4.00;;
53263;SDS011;39153;52.680;6.172;2023-04-25T01:20:23;16.50;;;4.13;;
53263;SDS011;39153;52.680;6.172;2023-04-25T01:22:53;23.85;;;4.82;;
53263;SDS011;39153;52.680;6.172;2023-04-25T01:25:20;13.73;;;4.10;;
53263;SDS011;39153;52.680;6.172;2023-04-25T01:27:46;14.40;;;4.13;;
53263;SDS011;39153;52.680;6.172;2023-04-25T01:30:12;15.98;;;3.90;;
53263;SDS011;39153;52.680;6.172;2023-04-25T01:32:38;17.30;;;4.07;;
53263;SDS011;39153;52.680;6.172;2023-04-25T01:35:06;15.07;;;3.75;;
53263;SDS011;39153;52.680;6.172;2023-04-25T01:37:40;14.55;;;3.22;;
53263;SDS011;39153;52.680;6.172;2023-04-25T01:40:08;22.02;;;3.83;;
53263;SDS011;39153;52.680;6.172;2023-04-25T01:42:35;17.13;;;3.88;;
53263;SDS011;39153;52.680;6.172;2023-04-25T01:45:03;20.08;;;3.90;;
53263;SDS011;39153;52.680;6.172;2023-04-25T01:47:30;12.93;;;3.67;;
53263;SDS011;39153;52.680;6.172;2023-04-25T01:49:56;18.00;;;3.80;;
53263;SDS011;39153;52.680;6.172;2023-04-25T01:52:22;16.27;;;3.95;;
53263;SDS011;39153;52.680;6.172;2023-04-25T01:54:47;17.88;;;4.18;;
53263;SDS011;39153;52.680;6.172;2023-04-25T01:57:15;21.38;;;4.10;;
53263;SDS011;39153;52.680;6.172;2023-04-25T01:59:41;20.50;;;4.97;;
53263;SDS011;39153;52.680;6.172;2023-04-25T02:02:08;17.05;;;4.00;;
53263;SDS011;39153;52.680;6.172;2023-04-25T02:04:34;17.15;;;4.10;;
53263;SDS011;39153;52.680;6.172;2023-04-25T02:07:00;18.20;;;3.80;;
53263;SDS011;39153;52.680;6.172;2023-04-25T02:09:26;17.50;;;3.80;;
53263;SDS011;39153;52.680;6.172;2023-04-25T02:11:52;16.08;;;3.33;;
53263;SDS011;39153;52.680;6.172;2023-04-25T02:14:18;20.33;;;3.60;;
53263;SDS011;39153;52.680;6.172;2023-04-25T02:16:43;15.95;;;3.67;;
53263;SDS011;39153;52.680;6.172;2023-04-25T02:19:09;19.35;;;3.60;;
53263;SDS011;39153;52.680;6.172;2023-04-25T02:21:36;18.38;;;3.50;;
53263;SDS011;39153;52.680;6.172;2023-04-25T02:24:02;13.98;;;3.67;;
53263;SDS011;39153;52.680;6.172;2023-04-25T02:26:28;14.48;;;3.88;;
53263;SDS011;39153;52.680;6.172;2023-04-25T02:28:55;19.35;;;3.65;;
53263;SDS011;39153;52.680;6.172;2023-04-25T02:31:21;19.42;;;4.07;;
53263;SDS011;39153;52.680;6.172;2023-04-25T02:33:47;24.33;;;3.85;;
53263;SDS011;39153;52.680;6.172;2023-04-25T02:36:13;17.05;;;3.67;;
53263;SDS011;39153;52.680;6.172;2023-04-25T02:38:39;15.82;;;3.45;;
53263;SDS011;39153;52.680;6.172;2023-04-25T02:41:04;19.05;;;3.78;;
53263;SDS011;39153;52.680;6.172;2023-04-25T02:43:30;23.70;;;4.00;;
53263;SDS011;39153;52.680;6.172;2023-04-25T02:45:56;15.93;;;3.28;;
53263;SDS011;39153;52.680;6.172;2023-04-25T02:48:21;14.60;;;2.70;;
53263;SDS011;39153;52.680;6.172;2023-04-25T02:50:47;11.45;;;3.25;;
53263;SDS011;39153;52.680;6.172;2023-04-25T02:53:13;11.05;;;2.60;;
53263;SDS011;39153;52.680;6.172;2023-04-25T02:55:38;14.30;;;3.17;;
53263;SDS011;39153;52.680;6.172;2023-04-25T02:58:04;13.50;;;2.83;;
53263;SDS011;39153;52.680;6.172;2023-04-25T03:00:30;16.25;;;2.70;;
53263;SDS011;39153;52.680;6.172;2023-04-25T03:02:56;11.88;;;2.83;;
53263;SDS011;39153;52.680;6.172;2023-04-25T03:05:22;12.20;;;2.60;;
53263;SDS011;39153;52.680;6.172;2023-04-25T03:07:47;16.00;;;2.60;;
53263;SDS011;39153;52.680;6.172;2023-04-25T03:10:13;15.50;;;2.95;;
53263;SDS011;39153;52.680;6.172;2023-04-25T03:12:39;18.88;;;2.40;;
53263;SDS011;39153;52.680;6.172;2023-04-25T03:15:04;17.25;;;3.13;;
53263;SDS011;39153;52.680;6.172;2023-04-25T03:17:30;15.18;;;3.00;;
53263;SDS011;39153;52.680;6.172;2023-04-25T03:19:57;14.15;;;3.88;;
53263;SDS011;39153;52.680;6.172;2023-04-25T03:22:23;14.90;;;2.22;;
53263;SDS011;39153;52.680;6.172;2023-04-25T03:24:49;11.45;;;2.30;;
53263;SDS011;39153;52.680;6.172;2023-04-25T03:27:15;10.88;;;2.85;;
53263;SDS011;39153;52.680;6.172;2023-04-25T03:29:41;18.52;;;2.78;;
53263;SDS011;39153;52.680;6.172;2023-04-25T03:32:07;11.15;;;2.20;;
53263;SDS011;39153;52.680;6.172;2023-04-25T03:34:32;15.98;;;2.33;;
53263;SDS011;39153;52.680;6.172;2023-04-25T03:36:58;15.13;;;2.15;;
53263;SDS011;39153;52.680;6.172;2023-04-25T03:39:25;12.60;;;2.22;;
53263;SDS011;39153;52.680;6.172;2023-04-25T03:41:50;10.02;;;2.17;;
53263;SDS011;39153;52.680;6.172;2023-04-25T03:44:16;17.17;;;2.33;;
53263;SDS011;39153;52.680;6.172;2023-04-25T03:46:42;11.60;;;2.35;;
53263;SDS011;39153;52.680;6.172;2023-04-25T03:49:08;10.57;;;2.75;;
53263;SDS011;39153;52.680;6.172;2023-04-25T03:51:33;11.13;;;1.85;;
53263;SDS011;39153;52.680;6.172;2023-04-25T03:53:59;12.00;;;2.30;;
53263;SDS011;39153;52.680;6.172;2023-04-25T03:56:25;10.13;;;1.80;;
53263;SDS011;39153;52.680;6.172;2023-04-25T03:58:50;19.40;;;2.45;;
53263;SDS011;39153;52.680;6.172;2023-04-25T04:01:16;11.18;;;2.30;;
53263;SDS011;39153;52.680;6.172;2023-04-25T04:03:42;13.00;;;1.98;;
53263;SDS011;39153;52.680;6.172;2023-04-25T04:06:08;12.50;;;2.03;;
53263;SDS011;39153;52.680;6.172;2023-04-25T04:08:34;20.08;;;2.95;;
53263;SDS011;39153;52.680;6.172;2023-04-25T04:11:00;8.10;;;1.90;;
53263;SDS011;39153;52.680;6.172;2023-04-25T04:13:26;15.73;;;2.22;;
53263;SDS011;39153;52.680;6.172;2023-04-25T04:15:52;12.55;;;2.28;;
53263;SDS011;39153;52.680;6.172;2023-04-25T04:18:18;11.73;;;2.17;;
53263;SDS011;39153;52.680;6.172;2023-04-25T04:20:44;12.02;;;2.30;;
53263;SDS011;39153;52.680;6.172;2023-04-25T04:23:10;7.90;;;1.75;;
53263;SDS011;39153;52.680;6.172;2023-04-25T04:25:36;13.07;;;2.40;;
53263;SDS011;39153;52.680;6.172;2023-04-25T04:28:02;8.02;;;2.08;;
53263;SDS011;39153;52.680;6.172;2023-04-25T04:30:28;11.88;;;2.45;;
53263;SDS011;39153;52.680;6.172;2023-04-25T04:32:58;16.20;;;3.03;;
53263;SDS011;39153;52.680;6.172;2023-04-25T04:35:25;13.50;;;2.45;;
53263;SDS011;39153;52.680;6.172;2023-04-25T04:37:51;11.90;;;2.45;;
53263;SDS011;39153;52.680;6.172;2023-04-25T04:40:17;11.38;;;2.60;;
53263;SDS011;39153;52.680;6.172;2023-04-25T04:42:43;11.05;;;1.90;;
53263;SDS011;39153;52.680;6.172;2023-04-25T04:45:10;12.70;;;1.75;;
53263;SDS011;39153;52.680;6.172;2023-04-25T04:47:37;13.85;;;1.92;;
53263;SDS011;39153;52.680;6.172;2023-04-25T04:50:05;9.38;;;2.00;;
53263;SDS011;39153;52.680;6.172;2023-04-25T04:52:33;10.93;;;2.08;;
53263;SDS011;39153;52.680;6.172;2023-04-25T04:55:03;15.15;;;2.22;;
53263;SDS011;39153;52.680;6.172;2023-04-25T04:57:29;10.88;;;1.90;;
53263;SDS011;39153;52.680;6.172;2023-04-25T04:59:56;11.65;;;2.08;;
53263;SDS011;39153;52.680;6.172;2023-04-25T05:02:22;11.68;;;1.70;;
53263;SDS011;39153;52.680;6.172;2023-04-25T05:04:47;8.57;;;1.70;;
53263;SDS011;39153;52.680;6.172;2023-04-25T05:07:13;12.20;;;2.25;;
53263;SDS011;39153;52.680;6.172;2023-04-25T05:09:39;7.38;;;1.75;;
53263;SDS011;39153;52.680;6.172;2023-04-25T05:12:05;13.18;;;1.65;;
53263;SDS011;39153;52.680;6.172;2023-04-25T05:14:31;12.23;;;2.25;;
53263;SDS011;39153;52.680;6.172;2023-04-25T05:16:56;8.70;;;1.75;;
53263;SDS011;39153;52.680;6.172;2023-04-25T05:19:23;11.13;;;2.08;;
53263;SDS011;39153;52.680;6.172;2023-04-25T05:21:49;7.05;;;1.67;;
53263;SDS011;39153;52.680;6.172;2023-04-25T05:24:15;11.98;;;2.40;;
53263;SDS011;39153;52.680;6.172;2023-04-25T05:26:41;9.05;;;1.60;;
53263;SDS011;39153;52.680;6.172;2023-04-25T05:29:06;9.65;;;1.83;;
53263;SDS011;39153;52.680;6.172;2023-04-25T05:31:32;10.50;;;1.92;;
53263;SDS011;39153;52.680;6.172;2023-04-25T05:33:58;11.00;;;1.73;;
53263;SDS011;39153;52.680;6.172;2023-04-25T05:36:24;6.80;;;1.67;;
53263;SDS011;39153;52.680;6.172;2023-04-25T05:38:50;13.93;;;1.90;;
53263;SDS011;39153;52.680;6.172;2023-04-25T05:41:16;9.70;;;2.08;;
53263;SDS011;39153;52.680;6.172;2023-04-25T05:43:41;12.98;;;2.13;;
53263;SDS011;39153;52.680;6.172;2023-04-25T05:46:12;13.70;;;1.77;;
53263;SDS011;39153;52.680;6.172;2023-04-25T05:48:39;14.10;;;2.22;;
53263;SDS011;39153;52.680;6.172;2023-04-25T05:51:05;10.45;;;2.22;;
53263;SDS011;39153;52.680;6.172;2023-04-25T05:53:30;10.25;;;2.00;;
53263;SDS011;39153;52.680;6.172;2023-04-25T05:55:56;13.82;;;2.10;;
53263;SDS011;39153;52.680;6.172;2023-04-25T05:58:22;11.05;;;2.05;;
53263;SDS011;39153;52.680;6.172;2023-04-25T06:00:48;13.98;;;1.88;;
53263;SDS011;39153;52.680;6.172;2023-04-25T06:03:13;11.43;;;1.65;;
53263;SDS011;39153;52.680;6.172;2023-04-25T06:05:43;9.52;;;1.58;;
53263;SDS011;39153;52.680;6.172;2023-04-25T06:08:09;12.45;;;2.58;;
53263;SDS011;39153;52.680;6.172;2023-04-25T06:10:35;8.35;;;1.90;;
53263;SDS011;39153;52.680;6.172;2023-04-25T06:13:01;15.00;;;1.55;;
53263;SDS011;39153;52.680;6.172;2023-04-25T06:15:27;10.52;;;1.98;;
53263;SDS011;39153;52.680;6.172;2023-04-25T06:17:53;10.90;;;2.05;;
53263;SDS011;39153;52.680;6.172;2023-04-25T06:20:19;13.02;;;2.85;;
53263;SDS011;39153;52.680;6.172;2023-04-25T06:22:48;11.90;;;1.98;;
53263;SDS011;39153;52.680;6.172;2023-04-25T06:25:14;7.75;;;1.50;;
53263;SDS011;39153;52.680;6.172;2023-04-25T06:27:40;9.50;;;1.63;;
53263;SDS011;39153;52.680;6.172;2023-04-25T06:30:06;8.50;;;1.48;;
53263;SDS011;39153;52.680;6.172;2023-04-25T06:32:32;7.68;;;1.42;;
53263;SDS011;39153;52.680;6.172;2023-04-25T06:34:59;11.57;;;1.67;;
53263;SDS011;39153;52.680;6.172;2023-04-25T06:37:25;10.68;;;1.70;;
53263;SDS011;39153;52.680;6.172;2023-04-25T06:39:51;9.23;;;1.60;;
53263;SDS011;39153;52.680;6.172;2023-04-25T06:42:16;10.15;;;1.63;;
53263;SDS011;39153;52.680;6.172;2023-04-25T06:44:42;11.02;;;2.42;;
53263;SDS011;39153;52.680;6.172;2023-04-25T06:47:08;9.23;;;1.75;;
53263;SDS011;39153;52.680;6.172;2023-04-25T06:49:34;12.57;;;1.95;;
53263;SDS011;39153;52.680;6.172;2023-04-25T06:52:00;10.70;;;2.13;;
53263;SDS011;39153;52.680;6.172;2023-04-25T06:54:25;13.30;;;2.35;;
53263;SDS011;39153;52.680;6.172;2023-04-25T06:56:53;10.25;;;2.05;;
53263;SDS011;39153;52.680;6.172;2023-04-25T06:59:19;7.47;;;1.98;;
53263;SDS011;39153;52.680;6.172;2023-04-25T07:01:45;11.27;;;1.65;;
53263;SDS011;39153;52.680;6.172;2023-04-25T07:04:11;15.10;;;1.80;;
53263;SDS011;39153;52.680;6.172;2023-04-25T07:06:36;12.35;;;2.17;;
53263;SDS011;39153;52.680;6.172;2023-04-25T07:09:07;13.90;;;3.33;;
53263;SDS011;39153;52.680;6.172;2023-04-25T07:11:34;10.73;;;2.65;;
53263;SDS011;39153;52.680;6.172;2023-04-25T07:14:01;12.90;;;2.40;;
53263;SDS011;39153;52.680;6.172;2023-04-25T07:16:27;12.07;;;2.80;;
53263;SDS011;39153;52.680;6.172;2023-04-25T07:18:53;8.48;;;2.45;;
53263;SDS011;39153;52.680;6.172;2023-04-25T07:21:19;9.80;;;2.47;;
53263;SDS011;39153;52.680;6.172;2023-04-25T07:23:44;15.35;;;2.60;;
53263;SDS011;39153;52.680;6.172;2023-04-25T07:26:10;14.18;;;2.95;;
53263;SDS011;39153;52.680;6.172;2023-04-25T07:28:36;12.88;;;3.20;;
53263;SDS011;39153;52.680;6.172;2023-04-25T07:31:02;11.25;;;3.25;;
53263;SDS011;39153;52.680;6.172;2023-04-25T07:33:28;14.65;;;3.67;;
53263;SDS011;39153;52.680;6.172;2023-04-25T07:35:54;11.65;;;3.25;;
53263;SDS011;39153;52.680;6.172;2023-04-25T07:38:20;16.38;;;3.35;;
53263;SDS011;39153;52.680;6.172;2023-04-25T07:40:49;14.13;;;3.28;;
53263;SDS011;39153;52.680;6.172;2023-04-25T07:43:15;15.75;;;2.67;;
53263;SDS011;39153;52.680;6.172;2023-04-25T07:45:45;13.10;;;2.40;;
53263;SDS011;39153;52.680;6.172;2023-04-25T07:48:11;18.42;;;2.42;;
53263;SDS011;39153;52.680;6.172;2023-04-25T07:50:41;16.02;;;2.58;;
53263;SDS011;39153;52.680;6.172;2023-04-25T07:53:06;9.35;;;1.60;;
53263;SDS011;39153;52.680;6.172;2023-04-25T07:55:32;9.13;;;1.70;;
53263;SDS011;39153;52.680;6.172;2023-04-25T07:57:58;10.60;;;2.33;;
53263;SDS011;39153;52.680;6.172;2023-04-25T08:00:23;10.02;;;1.60;;
53263;SDS011;39153;52.680;6.172;2023-04-25T08:02:49;15.80;;;1.92;;
53263;SDS011;39153;52.680;6.172;2023-04-25T08:05:16;8.15;;;1.35;;
53263;SDS011;39153;52.680;6.172;2023-04-25T08:07:42;6.82;;;1.40;;
53263;SDS011;39153;52.680;6.172;2023-04-25T08:10:08;9.82;;;1.80;;
53263;SDS011;39153;52.680;6.172;2023-04-25T08:12:34;6.82;;;1.48;;
53263;SDS011;39153;52.680;6.172;2023-04-25T08:15:00;11.57;;;1.70;;
53263;SDS011;39153;52.680;6.172;2023-04-25T08:17:26;9.63;;;1.40;;
53263;SDS011;39153;52.680;6.172;2023-04-25T08:19:52;6.32;;;1.27;;
53263;SDS011;39153;52.680;6.172;2023-04-25T08:22:18;5.18;;;1.20;;
53263;SDS011;39153;52.680;6.172;2023-04-25T08:24:43;7.80;;;1.40;;
53263;SDS011;39153;52.680;6.172;2023-04-25T08:27:09;11.60;;;3.03;;
53263;SDS011;39153;52.680;6.172;2023-04-25T08:29:35;10.00;;;1.75;;
53263;SDS011;39153;52.680;6.172;2023-04-25T08:32:00;13.27;;;1.83;;
53263;SDS011;39153;52.680;6.172;2023-04-25T08:34:26;7.30;;;2.08;;
53263;SDS011;39153;52.680;6.172;2023-04-25T08:36:52;10.38;;;1.75;;
53263;SDS011;39153;52.680;6.172;2023-04-25T08:39:18;13.80;;;3.13;;
53263;SDS011;39153;52.680;6.172;2023-04-25T08:41:43;24.40;;;7.32;;
53263;SDS011;39153;52.680;6.172;2023-04-25T08:44:10;27.90;;;10.20;;
53263;SDS011;39153;52.680;6.172;2023-04-25T08:46:40;23.38;;;6.07;;
53263;SDS011;39153;52.680;6.172;2023-04-25T08:49:06;11.85;;;2.47;;
53263;SDS011;39153;52.680;6.172;2023-04-25T08:51:34;11.70;;;1.98;;
53263;SDS011;39153;52.680;6.172;2023-04-25T08:54:10;8.95;;;1.35;;
53263;SDS011;39153;52.680;6.172;2023-04-25T08:56:40;9.95;;;1.58;;
53263;SDS011;39153;52.680;6.172;2023-04-25T08:59:09;6.95;;;1.45;;
53263;SDS011;39153;52.680;6.172;2023-04-25T09:01:36;14.85;;;1.60;;
53263;SDS011;39153;52.680;6.172;2023-04-25T09:04:02;9.20;;;1.70;;
53263;SDS011;39153;52.680;6.172;2023-04-25T09:06:31;9.85;;;2.40;;
53263;SDS011;39153;52.680;6.172;2023-04-25T09:09:03;15.85;;;1.95;;
53263;SDS011;39153;52.680;6.172;2023-04-25T09:11:31;10.50;;;1.90;;
53263;SDS011;39153;52.680;6.172;2023-04-25T09:14:14;10.90;;;1.65;;
53263;SDS011;39153;52.680;6.172;2023-04-25T09:19:24;10.18;;;3.45;;
53263;SDS011;39153;52.680;6.172;2023-04-25T09:21:55;10.88;;;2.20;;
53263;SDS011;39153;52.680;6.172;2023-04-25T09:24:34;11.32;;;1.90;;
53263;SDS011;39153;52.680;6.172;2023-04-25T09:27:08;12.63;;;2.45;;
53263;SDS011;39153;52.680;6.172;2023-04-25T09:29:36;9.30;;;1.98;;
53263;SDS011;39153;52.680;6.172;2023-04-25T09:32:18;9.57;;;1.50;;
53263;SDS011;39153;52.680;6.172;2023-04-25T09:34:50;6.72;;;1.77;;
53263;SDS011;39153;52.680;6.172;2023-04-25T09:37:27;12.45;;;2.03;;
53263;SDS011;39153;52.680;6.172;2023-04-25T09:39:54;6.25;;;1.63;;
53263;SDS011;39153;52.680;6.172;2023-04-25T09:42:22;7.25;;;1.45;;
53263;SDS011;39153;52.680;6.172;2023-04-25T09:44:49;7.43;;;1.35;;
53263;SDS011;39153;52.680;6.172;2023-04-25T09:47:17;4.28;;;1.00;;
53263;SDS011;39153;52.680;6.172;2023-04-25T09:49:43;6.00;;;1.20;;
53263;SDS011;39153;52.680;6.172;2023-04-25T09:52:13;5.53;;;1.10;;
53263;SDS011;39153;52.680;6.172;2023-04-25T09:54:40;8.68;;;1.20;;
53263;SDS011;39153;52.680;6.172;2023-04-25T09:57:10;7.97;;;1.30;;
53263;SDS011;39153;52.680;6.172;2023-04-25T09:59:38;7.22;;;1.42;;
53263;SDS011;39153;52.680;6.172;2023-04-25T10:02:07;7.10;;;1.30;;
53263;SDS011;39153;52.680;6.172;2023-04-25T10:04:35;5.05;;;1.40;;
53263;SDS011;39153;52.680;6.172;2023-04-25T10:07:01;5.93;;;1.30;;
53263;SDS011;39153;52.680;6.172;2023-04-25T10:09:30;12.05;;;1.98;;
53263;SDS011;39153;52.680;6.172;2023-04-25T10:11:59;8.90;;;1.67;;
53263;SDS011;39153;52.680;6.172;2023-04-25T10:14:25;6.57;;;1.50;;
53263;SDS011;39153;52.680;6.172;2023-04-25T10:16:51;7.13;;;1.63;;
53263;SDS011;39153;52.680;6.172;2023-04-25T10:19:19;9.65;;;1.70;;
53263;SDS011;39153;52.680;6.172;2023-04-25T10:21:49;7.47;;;1.77;;
53263;SDS011;39153;52.680;6.172;2023-04-25T10:24:17;14.48;;;2.30;;
53263;SDS011;39153;52.680;6.172;2023-04-25T10:26:45;14.63;;;2.40;;
53263;SDS011;39153;52.680;6.172;2023-04-25T10:29:11;10.68;;;2.65;;
53263;SDS011;39153;52.680;6.172;2023-04-25T10:31:45;9.02;;;2.20;;
53263;SDS011;39153;52.680;6.172;2023-04-25T10:34:12;7.38;;;1.98;;
53263;SDS011;39153;52.680;6.172;2023-04-25T10:36:38;9.27;;;2.08;;
53263;SDS011;39153;52.680;6.172;2023-04-25T10:39:05;9.63;;;1.85;;
53263;SDS011;39153;52.680;6.172;2023-04-25T10:41:32;8.43;;;1.50;;
53263;SDS011;39153;52.680;6.172;2023-04-25T10:44:12;6.57;;;1.50;;
53263;SDS011;39153;52.680;6.172;2023-04-25T10:46:39;6.15;;;1.35;;
53263;SDS011;39153;52.680;6.172;2023-04-25T10:49:05;5.75;;;1.27;;
53263;SDS011;39153;52.680;6.172;2023-04-25T10:51:36;6.50;;;1.58;;
53263;SDS011;39153;52.680;6.172;2023-04-25T10:56:32;6.05;;;1.42;;
53263;SDS011;39153;52.680;6.172;2023-04-25T11:01:29;11.63;;;1.63;;
53263;SDS011;39153;52.680;6.172;2023-04-25T11:04:28;8.93;;;1.95;;
53263;SDS011;39153;52.680;6.172;2023-04-25T11:09:29;6.03;;;1.45;;
53263;SDS011;39153;52.680;6.172;2023-04-25T11:11:56;11.88;;;1.70;;
53263;SDS011;39153;52.680;6.172;2023-04-25T11:14:23;9.45;;;1.73;;
53263;SDS011;39153;52.680;6.172;2023-04-25T11:16:56;6.97;;;1.40;;
53263;SDS011;39153;52.680;6.172;2023-04-25T11:19:23;7.97;;;1.80;;
53263;SDS011;39153;52.680;6.172;2023-04-25T11:21:49;10.07;;;1.70;;
53263;SDS011;39153;52.680;6.172;2023-04-25T11:24:16;9.90;;;1.80;;
53263;SDS011;39153;52.680;6.172;2023-04-25T11:26:42;5.53;;;1.15;;
53263;SDS011;39153;52.680;6.172;2023-04-25T11:29:09;5.53;;;1.30;;
53263;SDS011;39153;52.680;6.172;2023-04-25T11:31:34;7.80;;;1.48;;
53263;SDS011;39153;52.680;6.172;2023-04-25T11:34:00;5.72;;;1.23;;
53263;SDS011;39153;52.680;6.172;2023-04-25T11:36:26;5.60;;;1.40;;
53263;SDS011;39153;52.680;6.172;2023-04-25T11:38:52;6.38;;;1.67;;
53263;SDS011;39153;52.680;6.172;2023-04-25T11:41:19;6.43;;;1.73;;
53263;SDS011;39153;52.680;6.172;2023-04-25T11:43:45;6.68;;;1.50;;
53263;SDS011;39153;52.680;6.172;2023-04-25T11:46:11;7.55;;;1.60;;
53263;SDS011;39153;52.680;6.172;2023-04-25T11:48:38;7.85;;;1.63;;
53263;SDS011;39153;52.680;6.172;2023-04-25T11:51:04;6.53;;;1.38;;
53263;SDS011;39153;52.680;6.172;2023-04-25T11:53:30;5.82;;;1.40;;
53263;SDS011;39153;52.680;6.172;2023-04-25T11:55:56;5.03;;;1.60;;
53263;SDS011;39153;52.680;6.172;2023-04-25T11:58:22;9.15;;;1.85;;
53263;SDS011;39153;52.680;6.172;2023-04-25T12:00:48;6.68;;;1.55;;
53263;SDS011;39153;52.680;6.172;2023-04-25T12:03:13;6.55;;;1.52;;
53263;SDS011;39153;52.680;6.172;2023-04-25T12:05:39;5.32;;;1.08;;
53263;SDS011;39153;52.680;6.172;2023-04-25T12:10:42;5.40;;;1.17;;
53263;SDS011;39153;52.680;6.172;2023-04-25T12:15:48;6.32;;;1.30;;
53263;SDS011;39153;52.680;6.172;2023-04-25T12:18:14;9.02;;;1.60;;
53263;SDS011;39153;52.680;6.172;2023-04-25T12:20:43;7.55;;;1.60;;
53263;SDS011;39153;52.680;6.172;2023-04-25T12:23:09;10.23;;;1.95;;
53263;SDS011;39153;52.680;6.172;2023-04-25T12:33:28;9.40;;;2.63;;
53263;SDS011;39153;52.680;6.172;2023-04-25T12:35:55;9.70;;;2.67;;
53263;SDS011;39153;52.680;6.172;2023-04-25T12:38:26;8.75;;;2.33;;
53263;SDS011;39153;52.680;6.172;2023-04-25T12:40:54;6.43;;;1.50;;
53263;SDS011;39153;52.680;6.172;2023-04-25T12:43:21;6.90;;;1.70;;
53263;SDS011;39153;52.680;6.172;2023-04-25T12:45:56;7.13;;;1.40;;
53263;SDS011;39153;52.680;6.172;2023-04-25T12:48:22;7.63;;;2.03;;
53263;SDS011;39153;52.680;6.172;2023-04-25T12:50:49;7.47;;;1.90;;
53263;SDS011;39153;52.680;6.172;2023-04-25T12:53:16;10.60;;;3.10;;
53263;SDS011;39153;52.680;6.172;2023-04-25T12:55:42;6.20;;;2.10;;
53263;SDS011;39153;52.680;6.172;2023-04-25T12:58:10;7.68;;;1.65;;
53263;SDS011;39153;52.680;6.172;2023-04-25T13:00:36;8.90;;;2.20;;
53263;SDS011;39153;52.680;6.172;2023-04-25T13:03:02;7.47;;;1.90;;
53263;SDS011;39153;52.680;6.172;2023-04-25T13:05:29;7.15;;;2.10;;
53263;SDS011;39153;52.680;6.172;2023-04-25T13:07:55;9.18;;;1.88;;
53263;SDS011;39153;52.680;6.172;2023-04-25T13:10:22;10.18;;;2.03;;
53263;SDS011;39153;52.680;6.172;2023-04-25T13:12:47;7.00;;;1.98;;
53263;SDS011;39153;52.680;6.172;2023-04-25T13:15:13;10.23;;;2.13;;
53263;SDS011;39153;52.680;6.172;2023-04-25T13:17:40;6.35;;;2.00;;
53263;SDS011;39153;52.680;6.172;2023-04-25T13:20:07;8.02;;;1.45;;
53263;SDS011;39153;52.680;6.172;2023-04-25T13:22:37;6.90;;;1.27;;
53263;SDS011;39153;52.680;6.172;2023-04-25T13:25:04;8.55;;;1.83;;
53263;SDS011;39153;52.680;6.172;2023-04-25T13:27:32;5.22;;;1.27;;
53263;SDS011;39153;52.680;6.172;2023-04-25T13:30:02;8.55;;;2.13;;
53263;SDS011;39153;52.680;6.172;2023-04-25T13:32:35;8.35;;;1.90;;
53263;SDS011;39153;52.680;6.172;2023-04-25T13:35:02;7.68;;;1.70;;
53263;SDS011;39153;52.680;6.172;2023-04-25T13:37:29;6.18;;;1.48;;
53263;SDS011;39153;52.680;6.172;2023-04-25T13:39:58;8.82;;;1.80;;
53263;SDS011;39153;52.680;6.172;2023-04-25T13:42:25;7.32;;;2.53;;
53263;SDS011;39153;52.680;6.172;2023-04-25T13:44:51;6.07;;;1.67;;
53263;SDS011;39153;52.680;6.172;2023-04-25T13:47:16;7.97;;;1.50;;
53263;SDS011;39153;52.680;6.172;2023-04-25T13:49:42;6.63;;;1.42;;
53263;SDS011;39153;52.680;6.172;2023-04-25T13:52:08;4.80;;;1.33;;
53263;SDS011;39153;52.680;6.172;2023-04-25T13:54:34;4.90;;;1.10;;
53263;SDS011;39153;52.680;6.172;2023-04-25T13:56:59;4.93;;;1.42;;
53263;SDS011;39153;52.680;6.172;2023-04-25T13:59:26;5.25;;;1.25;;
53263;SDS011;39153;52.680;6.172;2023-04-25T14:01:52;4.78;;;1.33;;
53263;SDS011;39153;52.680;6.172;2023-04-25T14:04:18;8.32;;;1.58;;
53263;SDS011;39153;52.680;6.172;2023-04-25T14:06:44;6.20;;;1.40;;
53263;SDS011;39153;52.680;6.172;2023-04-25T14:09:10;8.60;;;1.27;;
53263;SDS011;39153;52.680;6.172;2023-04-25T14:11:38;6.63;;;1.17;;
53263;SDS011;39153;52.680;6.172;2023-04-25T14:14:04;3.40;;;1.17;;
53263;SDS011;39153;52.680;6.172;2023-04-25T14:16:30;5.03;;;1.23;;
53263;SDS011;39153;52.680;6.172;2023-04-25T14:18:58;8.10;;;1.20;;
53263;SDS011;39153;52.680;6.172;2023-04-25T14:21:25;6.05;;;1.27;;
53263;SDS011;39153;52.680;6.172;2023-04-25T14:23:52;5.13;;;1.35;;
53263;SDS011;39153;52.680;6.172;2023-04-25T14:26:17;4.07;;;1.10;;
53263;SDS011;39153;52.680;6.172;2023-04-25T14:28:43;4.13;;;1.00;;
53263;SDS011;39153;52.680;6.172;2023-04-25T14:31:09;5.20;;;1.08;;
53263;SDS011;39153;52.680;6.172;2023-04-25T14:33:35;7.22;;;1.10;;
53263;SDS011;39153;52.680;6.172;2023-04-25T14:36:02;5.05;;;0.95;;
53263;SDS011;39153;52.680;6.172;2023-04-25T14:38:28;4.30;;;1.40;;
53263;SDS011;39153;52.680;6.172;2023-04-25T14:40:54;7.35;;;1.35;;
53263;SDS011;39153;52.680;6.172;2023-04-25T14:43:19;8.05;;;1.70;;
53263;SDS011;39153;52.680;6.172;2023-04-25T14:45:45;6.55;;;1.55;;
53263;SDS011;39153;52.680;6.172;2023-04-25T14:48:11;7.90;;;1.60;;
53263;SDS011;39153;52.680;6.172;2023-04-25T14:50:37;8.75;;;2.63;;
53263;SDS011;39153;52.680;6.172;2023-04-25T14:53:02;8.77;;;2.33;;
53263;SDS011;39153;52.680;6.172;2023-04-25T14:55:28;8.65;;;1.92;;
53263;SDS011;39153;52.680;6.172;2023-04-25T14:57:54;9.00;;;1.40;;
53263;SDS011;39153;52.680;6.172;2023-04-25T15:00:20;4.43;;;1.00;;
53263;SDS011;39153;52.680;6.172;2023-04-25T15:02:47;6.80;;;1.00;;